Latest Coastal Weather Observations for King Island Airport

IDV60701

Issued at 7:52 pm EST Monday 4 May 2026 (issued every 10 minutes, with the page automatically refreshed every 10 minutes)

About coastal observations | Map of coastal stations | Coastal observations for VIC | Marine services | Other Formats
Station Details ID: 098017 Name: KING ISLAND AIRPORT Lat: -39.88 Lon: 143.89 Height: 35.42 m
Data from the previous 72 hours. | See also: Recent months at King Island Airport
Date/Time
EST
Wind Sea
Height
m
Swell Vis
km
Cloud Weather Temp
°C
Press
MSL
hPa
Rain since
9am
mm
Dir  Spd
kts
Gust
kts
Height
m
Period
s
Dir
04/07:30pm NW 23 31 - - - - 10 Partly cloudy - 14.7 1002.2 5.2
04/07:23pm NW 25 34 - - - - 6 Partly cloudy - 14.7 1002.1 5.2
04/07:03pm NNW 21 29 - - - - 5 Partly cloudy - 14.5 1002.4 4.6
04/07:00pm NNW 20 27 - - - - 7 Partly cloudy - 14.5 1002.4 4.2
04/06:32pm N 20 27 - - - - 10 Partly cloudy - 13.9 1002.7 4.0
04/06:30pm N 21 32 - - - - 10 Partly cloudy - 14.0 1002.8 3.8
04/06:07pm N 22 32 - - - - 5 Partly cloudy - 13.9 1002.9 3.4
04/06:00pm N 21 32 - - - - 8 Cloudy Showers 14.0 1003.0 3.0
04/05:44pm N 20 30 - - - - 10 Partly cloudy - 14.4 1003.4 2.6
04/05:30pm N 19 26 - - - - 10 Cloudy - 14.3 1003.6 2.4
04/05:27pm N 20 26 - - - - 10 Partly cloudy - 14.3 1003.6 2.4
04/05:26pm N 20 26 - - - - 10 Partly cloudy - 14.2 1003.6 2.4
04/05:08pm N 17 25 - - - - 5 Mostly clear - 13.9 1003.7 2.4
04/05:00pm N 17 25 - - - - 10 Partly cloudy - 14.3 1003.7 0.8
04/04:30pm N 14 19 - - - - 10 Partly cloudy - 14.4 1004.1 0.4
04/04:04pm N 15 26 - - - - 10 Mostly clear - 14.2 1004.4 0.2
04/04:00pm N 15 22 - - - - 10 Mostly clear - 14.4 1004.3 0.2
04/03:30pm N 18 23 - - - - 10 Partly cloudy - 15.7 1004.3 0.0
04/03:00pm N 19 23 - - - - 10 Cloudy - 16.3 1004.6 0.0
04/02:30pm N 14 21 - - - - 10 Partly cloudy - 16.3 1005.0 0.0
04/02:00pm N 13 19 - - - - 10 Partly cloudy - 15.5 1005.3 0.0
04/01:30pm NNE 14 19 - - - - 10 Partly cloudy - 14.8 1005.6 0.0
04/01:00pm N 16 22 - - - - 10 Partly cloudy - 15.0 1005.9 0.0
04/12:30pm N 18 26 - - - - 10 Partly cloudy - 15.4 1006.2 0.0
04/12:20pm N 15 26 - - - - 10 Partly cloudy - 15.3 1006.4 0.0
04/12:00pm N 15 21 - - - - 10 Cloudy - 15.6 1006.8 0.0
04/11:30am N 15 21 - - - - 10 Cloudy - 15.3 1007.1 0.0
04/11:00am N 18 24 - - - - 10 Cloudy - 15.2 1007.1 0.0
04/10:30am N 18 23 - - - - 10 Partly cloudy - 16.2 1007.0 0.0
04/10:00am N 19 25 - - - - 10 Partly cloudy - 16.4 1007.0 0.0
04/09:30am N 17 23 - - - - 10 - - 15.5 1007.2 0.0
04/09:00am NNE 14 17 - - - - 10 - - 15.2 1007.3 2.6
04/08:30am NNE 12 15 - - - - 10 - - 14.4 1007.4 2.6
04/08:00am NNE 11 14 - - - - 10 - - 13.5 1007.5 2.6
04/07:30am NNE 11 14 - - - - 10 - - 12.7 1007.3 2.6
04/07:00am NNE 10 13 - - - - 10 Mostly clear - 12.4 1007.4 2.6
04/06:30am NE 8 9 - - - - 10 - - 11.6 1007.6 2.6
04/06:00am NNE 11 14 - - - - 10 Mostly clear - 12.7 1007.8 2.6
04/05:30am NE 9 12 - - - - 10 Partly cloudy - 12.6 1007.8 2.6
04/05:00am NNE 10 15 - - - - 10 Mostly clear - 13.6 1008.1 2.6
04/04:30am NE 8 10 - - - - 10 Partly cloudy - 11.6 1008.2 2.6
04/04:00am NE 7 9 - - - - 10 - - 11.2 1008.4 2.6
04/03:30am NE 8 9 - - - - 10 - - 11.6 1008.5 2.6
04/03:00am NNE 9 12 - - - - 10 - - 12.6 1008.8 2.6
04/02:30am NNE 9 11 - - - - 10 - - 13.1 1009.0 2.6
04/02:00am N 8 13 - - - - 10 - - 12.7 1009.2 2.6
04/01:30am N 11 17 - - - - 10 - - 14.2 1009.2 2.6
04/01:00am N 11 18 - - - - 10 - - 14.4 1009.1 2.6
04/12:30am N 12 17 - - - - 10 - - 14.1 1009.1 2.6
04/12:00am NNW 15 20 - - - - 10 Cloudy - 15.1 1009.2 2.6
 
Date/Time
EST
Wind Sea
Height
m
Swell Vis
km
Cloud Weather Temp
°C
Press
MSL
hPa
Rain since
9am
mm
Dir  Spd
kts
Gust
kts
Height
m
Period
s
Dir
03/11:30pm N 10 14 - - - - 10 - - 14.2 1009.4 2.6
03/11:00pm NNE 8 11 - - - - 10 - - 13.1 1009.7 2.6
03/10:30pm N 9 11 - - - - 10 - - 13.2 1010.0 2.6
03/10:00pm NE 7 9 - - - - 10 Mostly clear - 12.4 1010.2 2.6
03/09:30pm NNE 7 8 - - - - 10 - - 11.9 1010.2 2.6
03/09:00pm NE 7 10 - - - - 10 - - 12.2 1010.3 2.6
03/08:30pm ENE 6 7 - - - - 10 - - 11.0 1010.1 2.6
03/08:00pm NNE 5 6 - - - - 10 - - 11.4 1009.8 2.6
03/07:30pm ENE 5 6 - - - - 10 - - 11.1 1009.8 2.6
03/07:00pm NE 4 6 - - - - 10 - - 11.8 1009.7 2.6
03/06:30pm NE 3 4 - - - - 10 - - 12.2 1009.4 2.6
03/06:00pm NE 5 6 - - - - 10 - - 12.7 1009.0 2.6
03/05:30pm N 5 6 - - - - 10 - - 14.1 1008.7 2.6
03/05:00pm NNW 8 11 - - - - 10 - - 15.2 1008.6 2.6
03/04:30pm NNW 11 16 - - - - 10 - - 16.1 1008.6 2.6
03/04:00pm NNW 14 17 - - - - 10 - - 16.2 1008.6 2.6
03/03:30pm NNW 15 18 - - - - 10 - - 16.5 1008.8 2.6
03/03:00pm NNW 15 20 - - - - 10 Mostly clear - 16.7 1008.7 2.6
03/02:30pm NNW 16 19 - - - - 10 - - 16.6 1008.5 2.6
03/02:00pm NNW 14 19 - - - - 10 Mostly clear - 16.4 1008.5 2.6
03/01:30pm NNW 13 18 - - - - 10 Mostly clear - 16.1 1008.4 2.6
03/01:23pm NNW 13 17 - - - - 10 Partly cloudy - 16.2 1008.4 2.6
03/01:09pm NNW 12 15 - - - - 10 Partly cloudy - 15.2 1008.7 2.6
03/01:00pm NNW 12 16 - - - - 6 Partly cloudy - 14.8 1008.8 2.6
03/12:52pm NNW 13 16 - - - - 5 Partly cloudy - 14.5 1008.8 2.6
03/12:42pm NNW 12 19 - - - - 10 Partly cloudy - 14.7 1008.7 1.4
03/12:32pm NNW 9 12 - - - - 10 Partly cloudy - 15.0 1008.9 1.2
03/12:30pm NNW 9 12 - - - - 10 Partly cloudy - 15.0 1009.0 1.2
03/12:00pm NNW 10 12 - - - - 10 Cloudy Showers 15.1 1008.9 1.2
03/11:30am NNW 11 14 - - - - 10 Partly cloudy - 15.4 1009.3 0.6
03/11:09am N 13 20 - - - - 10 Partly cloudy - 16.0 1008.7 0.6
03/11:00am NNE 18 25 - - - - 10 Mostly clear - 16.6 1008.7 0.4
03/10:30am NNE 17 22 - - - - 10 Cloudy - 17.1 1009.0 0.2
03/10:00am NNE 18 23 - - - - 10 Partly cloudy - 17.4 1009.0 0.0
03/09:30am NE 17 24 - - - - 10 Partly cloudy - 17.8 1008.8 0.0
03/09:00am NE 14 20 - - - - 10 Cloudy - 17.4 1009.1 10.0
03/08:30am NE 15 20 - - - - 10 Mostly clear - 16.9 1009.4 10.0
03/08:00am NE 14 19 - - - - 10 Mostly clear - 16.3 1009.7 10.0
03/07:30am NE 14 20 - - - - 10 Partly cloudy - 16.1 1009.6 10.0
03/07:00am NE 13 18 - - - - 10 Partly cloudy - 15.9 1009.9 9.8
03/06:30am NE 13 19 - - - - 10 Partly cloudy - 15.9 1010.4 8.8
03/06:00am NE 13 17 - - - - 10 Cloudy Showers 16.0 1010.5 8.2
03/05:30am NE 12 16 - - - - 10 Cloudy - 16.0 1010.4 7.2
03/05:00am ENE 13 18 - - - - 10 Partly cloudy - 16.0 1010.1 7.2
03/04:30am ENE 13 18 - - - - 10 Partly cloudy - 15.9 1010.1 7.2
03/04:00am NE 13 17 - - - - 10 Partly cloudy - 16.0 1010.7 7.0
03/03:30am NE 12 16 - - - - 10 Partly cloudy - 16.0 1011.1 6.6
03/03:00am NE 11 15 - - - - 10 Cloudy Showers 16.0 1011.6 6.0
03/02:30am NE 9 12 - - - - 10 Partly cloudy - 16.0 1011.8 5.2
03/02:00am NE 11 14 - - - - 10 Cloudy - 16.2 1011.9 4.6
03/01:30am NNE 11 14 - - - - 10 Partly cloudy - 16.1 1012.4 4.2
03/01:00am NNE 11 15 - - - - 10 Partly cloudy - 16.3 1012.8 2.8
03/12:30am NE 10 14 - - - - 10 Cloudy - 16.5 1012.8 2.0
03/12:00am NE 14 18 - - - - 10 Cloudy Rain 16.4 1012.7 1.8
 
Date/Time
EST
Wind Sea
Height
m
Swell Vis
km
Cloud Weather Temp
°C
Press
MSL
hPa
Rain since
9am
mm
Dir  Spd
kts
Gust
kts
Height
m
Period
s
Dir
02/11:30pm NE 11 15 - - - - 10 Mostly clear - 16.5 1013.2 1.2
02/11:00pm NE 11 15 - - - - 10 Cloudy - 16.9 1013.4 0.8
02/10:30pm NE 10 16 - - - - 10 Cloudy - 16.9 1013.3 0.8
02/10:00pm ENE 10 14 - - - - 10 Partly cloudy - 16.7 1013.4 0.8
02/09:30pm NE 12 15 - - - - 10 Partly cloudy - 16.7 1013.8 0.6
02/09:00pm NNE 14 20 - - - - 10 Cloudy Rain 17.5 1013.9 0.2
02/08:30pm NNE 16 21 - - - - 10 Cloudy - 18.4 1013.5 0.0
02/08:00pm NNE 19 26 - - - - 10 Cloudy - 20.4 1012.8 0.0
02/07:30pm NNE 15 18 - - - - 10 Cloudy - 19.7 1012.9 0.0
02/07:00pm NE 16 21 - - - - 10 Cloudy - 19.6 1012.9 0.0
02/06:30pm NNE 18 23 - - - - 10 Mostly clear - 20.1 1013.0 0.0
02/06:00pm NNE 16 22 - - - - 10 Cloudy - 19.9 1012.6 0.0
02/05:30pm NNE 16 22 - - - - 10 Partly cloudy - 20.1 1012.3 0.0
02/05:00pm NNE 17 24 - - - - 10 Mostly clear - 20.0 1012.4 0.0
02/04:30pm NNE 19 25 - - - - 10 Mostly clear - 20.2 1012.5 0.0
02/04:00pm NNE 19 24 - - - - 10 Partly cloudy - 20.2 1012.7 0.0
02/03:30pm NNE 20 26 - - - - 10 Mostly clear - 20.7 1012.8 0.0
02/03:00pm NNE 21 28 - - - - 10 Mostly cloudy - 21.0 1012.8 0.0
02/02:30pm NNE 19 26 - - - - 10 Cloudy - 21.4 1013.1 0.0
02/02:19pm NNE 20 30 - - - - 10 Cloudy - 21.4 1013.1 0.0
02/02:00pm NNE 19 26 - - - - 10 Cloudy - 21.4 1013.3 0.0
02/01:31pm NNE 21 31 - - - - 10 Partly cloudy - 21.3 1013.6 0.0
02/01:30pm NNE 22 31 - - - - 10 Partly cloudy - 21.3 1013.6 0.0
02/01:00pm NNE 19 25 - - - - 10 Partly cloudy - 22.3 1014.0 0.0
02/12:30pm NNE 19 26 - - - - 10 Partly cloudy - 21.1 1014.4 0.0
02/12:08pm NNE 21 31 - - - - 10 Mostly clear - 21.2 1014.8 0.0
02/12:00pm NNE 23 29 - - - - 10 Cloudy - 21.5 1015.0 0.0
02/11:31am NNE 21 31 - - - - 10 Mostly clear - 21.6 1015.3 0.0
02/11:30am NNE 22 31 - - - - 10 Mostly clear - 21.7 1015.4 0.0
02/11:29am NNE 21 31 - - - - 10 Mostly clear - 21.6 1015.4 0.0
02/11:00am NNE 21 27 - - - - 10 Partly cloudy - 21.8 1015.8 0.0
02/10:30am NNE 21 29 - - - - 10 Mostly clear - 20.4 1016.0 0.0
02/10:00am NNE 20 27 - - - - 10 Partly cloudy - 20.1 1016.2 0.0
02/09:30am NNE 20 24 - - - - 10 Partly cloudy - 20.0 1016.5 0.0
02/09:00am NNE 19 25 - - - - 10 Mostly cloudy - 19.7 1016.6 0.0
02/08:30am NNE 18 25 - - - - 10 Cloudy - 19.7 1016.6 0.0
02/08:00am NNE 17 23 - - - - 10 Partly cloudy - 19.2 1016.4 0.0
02/07:30am NNE 15 21 - - - - 10 Partly cloudy - 18.6 1016.4 0.0
02/07:00am NNE 15 19 - - - - 10 - - 18.4 1016.3 0.0
02/06:30am NNE 17 22 - - - - 10 - - 18.5 1016.4 0.0
02/06:00am NNE 16 23 - - - - 10 Cloudy - 18.6 1016.5 0.0
02/05:30am NNE 15 20 - - - - 10 Partly cloudy - 18.6 1016.6 0.0
02/05:00am NNE 17 22 - - - - 10 Partly cloudy - 19.2 1016.7 0.0
02/04:30am NNE 16 20 - - - - 10 Partly cloudy - 19.4 1016.9 0.0
02/04:00am NNE 16 21 - - - - 10 Partly cloudy - 19.3 1017.0 0.0
02/03:30am NNE 16 21 - - - - 10 Partly cloudy - 19.6 1017.3 0.0
02/03:00am NNE 16 22 - - - - 10 Mostly cloudy - 19.7 1017.5 0.0
02/02:30am NNE 17 22 - - - - 10 Cloudy - 20.0 1017.8 0.0
02/02:00am NNE 17 21 - - - - 10 Cloudy - 20.3 1018.0 0.0
02/01:30am NNE 17 21 - - - - 10 Cloudy - 20.6 1018.4 0.0
02/01:00am NNE 17 22 - - - - 10 Cloudy - 20.5 1018.5 0.0
02/12:30am NNE 17 23 - - - - 10 Cloudy - 20.9 1018.7 0.0
02/12:00am NNE 17 22 - - - - 10 Mostly cloudy - 21.1 1018.9 0.0
 
Date/Time
EST
Wind Sea
Height
m
Swell Vis
km
Cloud Weather Temp
°C
Press
MSL
hPa
Rain since
9am
mm
Dir  Spd
kts
Gust
kts
Height
m
Period
s
Dir
01/11:30pm NNE 16 22 - - - - 10 Cloudy - 21.0 1019.2 0.0
01/11:00pm NNE 16 22 - - - - 10 Cloudy - 20.9 1019.5 0.0
01/10:30pm NNE 17 24 - - - - 10 Partly cloudy - 20.9 1019.7 0.0
01/10:00pm NNE 16 23 - - - - 10 Partly cloudy - 20.7 1019.7 0.0
01/09:30pm NNE 13 19 - - - - 10 Mostly clear - 19.3 1019.8 0.0
01/09:00pm NNE 12 16 - - - - 10 Partly cloudy - 18.8 1019.9 0.0
01/08:30pm NE 9 12 - - - - 10 Partly cloudy - 18.2 1019.9 0.0
01/08:00pm NE 9 13 - - - - 10 Partly cloudy - 18.2 1019.8 0.0

Other formats

Comma delimited format used in spreadsheet applications
http://www.bom.gov.au/fwo/IDV60701/IDV60701.94850.axf

JavaScript Object Notation format (JSON) in row-major order
http://www.bom.gov.au/fwo/IDV60701/IDV60701.94850.json

Data quality

Most of these data are generated automatically and are frequently updated. Quality checks on data are not normally performed. It is possible for incorrect values to appear. Refer to information at About Latest Weather Observations and please check the disclaimer before using these data.